sensor_id;sensor_type;location;lat;lon;timestamp;temperature;humidity
70928;SHT31;58587;53.034;18.576;2024-03-25T00:01:23;4.74;92.32
70928;SHT31;58587;53.034;18.576;2024-03-25T00:03:50;4.72;92.43
70928;SHT31;58587;53.034;18.576;2024-03-25T00:06:15;4.72;92.23
70928;SHT31;58587;53.034;18.576;2024-03-25T00:08:40;4.72;92.34
70928;SHT31;58587;53.034;18.576;2024-03-25T00:11:06;4.69;92.08
70928;SHT31;58587;53.034;18.576;2024-03-25T00:13:31;4.67;92.14
70928;SHT31;58587;53.034;18.576;2024-03-25T00:15:56;4.67;92.35
70928;SHT31;58587;53.034;18.576;2024-03-25T00:18:22;4.64;92.06
70928;SHT31;58587;53.034;18.576;2024-03-25T00:20:47;4.64;92.29
70928;SHT31;58587;53.034;18.576;2024-03-25T00:23:12;4.62;92.46
70928;SHT31;58587;53.034;18.576;2024-03-25T00:25:38;4.58;92.54
70928;SHT31;58587;53.034;18.576;2024-03-25T00:28:03;4.61;92.47
70928;SHT31;58587;53.034;18.576;2024-03-25T00:30:29;4.58;92.47
70928;SHT31;58587;53.034;18.576;2024-03-25T00:32:55;4.55;92.78
70928;SHT31;58587;53.034;18.576;2024-03-25T00:35:20;4.60;92.72
70928;SHT31;58587;53.034;18.576;2024-03-25T00:37:45;4.54;92.66
70928;SHT31;58587;53.034;18.576;2024-03-25T00:40:11;4.55;93.03
70928;SHT31;58587;53.034;18.576;2024-03-25T00:42:37;4.57;92.98
70928;SHT31;58587;53.034;18.576;2024-03-25T00:45:02;4.60;93.02
70928;SHT31;58587;53.034;18.576;2024-03-25T00:47:30;4.55;93.18
70928;SHT31;58587;53.034;18.576;2024-03-25T00:49:55;4.61;93.01
70928;SHT31;58587;53.034;18.576;2024-03-25T00:52:21;4.61;92.94
70928;SHT31;58587;53.034;18.576;2024-03-25T00:54:46;4.61;92.88
70928;SHT31;58587;53.034;18.576;2024-03-25T00:57:11;4.61;92.73
70928;SHT31;58587;53.034;18.576;2024-03-25T00:59:38;4.61;92.89
70928;SHT31;58587;53.034;18.576;2024-03-25T01:02:03;4.61;92.43
70928;SHT31;58587;53.034;18.576;2024-03-25T01:04:29;4.58;92.35
70928;SHT31;58587;53.034;18.576;2024-03-25T01:06:54;4.57;92.14
70928;SHT31;58587;53.034;18.576;2024-03-25T01:09:19;4.53;92.52
70928;SHT31;58587;53.034;18.576;2024-03-25T01:11:47;4.50;92.39
70928;SHT31;58587;53.034;18.576;2024-03-25T01:14:12;4.45;92.22
70928;SHT31;58587;53.034;18.576;2024-03-25T01:16:37;4.47;92.28
70928;SHT31;58587;53.034;18.576;2024-03-25T01:19:03;4.41;92.51
70928;SHT31;58587;53.034;18.576;2024-03-25T01:21:28;4.38;92.61
70928;SHT31;58587;53.034;18.576;2024-03-25T01:23:55;4.36;92.64
70928;SHT31;58587;53.034;18.576;2024-03-25T01:26:20;4.33;93.01
70928;SHT31;58587;53.034;18.576;2024-03-25T01:28:45;4.34;92.95
70928;SHT31;58587;53.034;18.576;2024-03-25T01:31:11;4.33;92.99
70928;SHT31;58587;53.034;18.576;2024-03-25T01:33:36;4.30;93.08
70928;SHT31;58587;53.034;18.576;2024-03-25T01:36:02;4.29;93.21
70928;SHT31;58587;53.034;18.576;2024-03-25T01:38:27;4.25;93.17
70928;SHT31;58587;53.034;18.576;2024-03-25T01:40:53;4.25;93.18
70928;SHT31;58587;53.034;18.576;2024-03-25T01:43:18;4.21;93.40
70928;SHT31;58587;53.034;18.576;2024-03-25T01:45:44;4.21;93.22
70928;SHT31;58587;53.034;18.576;2024-03-25T01:48:11;4.21;93.47
70928;SHT31;58587;53.034;18.576;2024-03-25T01:50:42;4.18;93.46
70928;SHT31;58587;53.034;18.576;2024-03-25T01:53:08;4.16;93.45
70928;SHT31;58587;53.034;18.576;2024-03-25T01:55:35;4.11;93.45
70928;SHT31;58587;53.034;18.576;2024-03-25T01:58:04;4.16;93.68
70928;SHT31;58587;53.034;18.576;2024-03-25T02:00:31;4.14;93.56
70928;SHT31;58587;53.034;18.576;2024-03-25T02:02:57;4.13;93.69
70928;SHT31;58587;53.034;18.576;2024-03-25T02:05:22;4.18;93.64
70928;SHT31;58587;53.034;18.576;2024-03-25T02:07:48;4.20;93.49
70928;SHT31;58587;53.034;18.576;2024-03-25T02:10:15;4.29;93.46
70928;SHT31;58587;53.034;18.576;2024-03-25T02:12:45;4.30;93.19
70928;SHT31;58587;53.034;18.576;2024-03-25T02:15:12;4.31;93.02
70928;SHT31;58587;53.034;18.576;2024-03-25T02:17:38;4.33;92.81
70928;SHT31;58587;53.034;18.576;2024-03-25T02:20:05;4.34;92.79
70928;SHT31;58587;53.034;18.576;2024-03-25T02:22:32;4.36;93.07
70928;SHT31;58587;53.034;18.576;2024-03-25T02:24:59;4.37;93.26
70928;SHT31;58587;53.034;18.576;2024-03-25T02:27:25;4.38;93.03
70928;SHT31;58587;53.034;18.576;2024-03-25T02:29:50;4.33;93.19
70928;SHT31;58587;53.034;18.576;2024-03-25T02:32:16;4.36;93.18
70928;SHT31;58587;53.034;18.576;2024-03-25T02:34:44;4.33;93.21
70928;SHT31;58587;53.034;18.576;2024-03-25T02:37:11;4.34;93.32
70928;SHT31;58587;53.034;18.576;2024-03-25T02:39:37;4.34;93.15
70928;SHT31;58587;53.034;18.576;2024-03-25T02:42:03;4.31;92.69
70928;SHT31;58587;53.034;18.576;2024-03-25T02:44:29;4.29;92.84
70928;SHT31;58587;53.034;18.576;2024-03-25T02:46:55;4.30;92.59
70928;SHT31;58587;53.034;18.576;2024-03-25T02:49:21;4.31;92.44
70928;SHT31;58587;53.034;18.576;2024-03-25T02:51:47;4.27;92.23
70928;SHT31;58587;53.034;18.576;2024-03-25T02:54:12;4.27;92.41
70928;SHT31;58587;53.034;18.576;2024-03-25T02:56:39;4.18;92.81
70928;SHT31;58587;53.034;18.576;2024-03-25T02:59:05;4.17;92.95
70928;SHT31;58587;53.034;18.576;2024-03-25T03:01:30;4.16;93.13
70928;SHT31;58587;53.034;18.576;2024-03-25T03:03:55;4.14;93.13
70928;SHT31;58587;53.034;18.576;2024-03-25T03:06:21;4.09;93.00
70928;SHT31;58587;53.034;18.576;2024-03-25T03:08:47;4.10;93.36
70928;SHT31;58587;53.034;18.576;2024-03-25T03:11:13;4.07;93.38
70928;SHT31;58587;53.034;18.576;2024-03-25T03:13:38;4.09;93.25
70928;SHT31;58587;53.034;18.576;2024-03-25T03:16:03;4.13;93.23
70928;SHT31;58587;53.034;18.576;2024-03-25T03:18:29;4.16;93.20
70928;SHT31;58587;53.034;18.576;2024-03-25T03:20:55;4.21;93.27
70928;SHT31;58587;53.034;18.576;2024-03-25T03:23:23;4.23;93.13
70928;SHT31;58587;53.034;18.576;2024-03-25T03:25:49;4.18;93.36
70928;SHT31;58587;53.034;18.576;2024-03-25T03:28:15;4.21;92.98
70928;SHT31;58587;53.034;18.576;2024-03-25T03:30:40;4.21;92.90
70928;SHT31;58587;53.034;18.576;2024-03-25T03:33:06;4.18;93.04
70928;SHT31;58587;53.034;18.576;2024-03-25T03:35:34;4.17;92.84
70928;SHT31;58587;53.034;18.576;2024-03-25T03:38:00;4.16;93.10
70928;SHT31;58587;53.034;18.576;2024-03-25T03:40:25;4.10;92.82
70928;SHT31;58587;53.034;18.576;2024-03-25T03:42:51;4.10;93.06
70928;SHT31;58587;53.034;18.576;2024-03-25T03:45:16;4.14;93.19
70928;SHT31;58587;53.034;18.576;2024-03-25T03:47:41;4.17;93.30
70928;SHT31;58587;53.034;18.576;2024-03-25T03:50:07;4.16;93.39
70928;SHT31;58587;53.034;18.576;2024-03-25T03:52:33;4.13;93.07
70928;SHT31;58587;53.034;18.576;2024-03-25T03:54:58;4.16;93.11
70928;SHT31;58587;53.034;18.576;2024-03-25T03:57:23;4.17;92.88
70928;SHT31;58587;53.034;18.576;2024-03-25T03:59:51;4.13;92.81
70928;SHT31;58587;53.034;18.576;2024-03-25T04:02:16;4.11;92.63
70928;SHT31;58587;53.034;18.576;2024-03-25T04:04:41;4.10;92.59
70928;SHT31;58587;53.034;18.576;2024-03-25T04:07:07;4.07;92.57
70928;SHT31;58587;53.034;18.576;2024-03-25T04:09:32;4.04;92.76
70928;SHT31;58587;53.034;18.576;2024-03-25T04:11:58;4.01;92.59
70928;SHT31;58587;53.034;18.576;2024-03-25T04:14:23;3.97;92.78
70928;SHT31;58587;53.034;18.576;2024-03-25T04:16:48;3.91;92.99
70928;SHT31;58587;53.034;18.576;2024-03-25T04:19:13;3.89;92.99
70928;SHT31;58587;53.034;18.576;2024-03-25T04:21:39;3.86;93.22
70928;SHT31;58587;53.034;18.576;2024-03-25T04:24:05;3.82;93.14
70928;SHT31;58587;53.034;18.576;2024-03-25T04:26:31;3.82;93.38
70928;SHT31;58587;53.034;18.576;2024-03-25T04:28:56;3.82;93.53
70928;SHT31;58587;53.034;18.576;2024-03-25T04:31:22;3.86;93.35
70928;SHT31;58587;53.034;18.576;2024-03-25T04:33:47;3.86;93.56
70928;SHT31;58587;53.034;18.576;2024-03-25T04:36:13;3.87;93.74
70928;SHT31;58587;53.034;18.576;2024-03-25T04:38:38;3.90;93.76
70928;SHT31;58587;53.034;18.576;2024-03-25T04:41:04;3.90;93.61
70928;SHT31;58587;53.034;18.576;2024-03-25T04:43:29;3.91;93.58
70928;SHT31;58587;53.034;18.576;2024-03-25T04:45:55;3.90;93.52
70928;SHT31;58587;53.034;18.576;2024-03-25T04:48:20;3.91;93.37
70928;SHT31;58587;53.034;18.576;2024-03-25T04:50:46;3.94;93.45
70928;SHT31;58587;53.034;18.576;2024-03-25T04:53:11;3.90;93.51
70928;SHT31;58587;53.034;18.576;2024-03-25T04:55:37;3.89;93.56
70928;SHT31;58587;53.034;18.576;2024-03-25T04:58:02;3.87;93.51
70928;SHT31;58587;53.034;18.576;2024-03-25T05:00:27;3.93;93.86
70928;SHT31;58587;53.034;18.576;2024-03-25T05:02:53;3.94;93.73
70928;SHT31;58587;53.034;18.576;2024-03-25T05:05:19;3.97;93.91
70928;SHT31;58587;53.034;18.576;2024-03-25T05:07:44;3.97;93.70
70928;SHT31;58587;53.034;18.576;2024-03-25T05:10:09;4.01;93.65
70928;SHT31;58587;53.034;18.576;2024-03-25T05:12:35;4.06;93.79
70928;SHT31;58587;53.034;18.576;2024-03-25T05:15:00;4.09;93.75
70928;SHT31;58587;53.034;18.576;2024-03-25T05:17:26;4.11;93.84
70928;SHT31;58587;53.034;18.576;2024-03-25T05:19:51;4.14;93.92
70928;SHT31;58587;53.034;18.576;2024-03-25T05:22:16;4.20;93.80
70928;SHT31;58587;53.034;18.576;2024-03-25T05:24:42;4.23;93.48
70928;SHT31;58587;53.034;18.576;2024-03-25T05:27:07;4.30;93.80
70928;SHT31;58587;53.034;18.576;2024-03-25T05:29:32;4.33;93.70
70928;SHT31;58587;53.034;18.576;2024-03-25T05:31:59;4.38;93.69
70928;SHT31;58587;53.034;18.576;2024-03-25T05:34:25;4.44;93.36
70928;SHT31;58587;53.034;18.576;2024-03-25T05:36:51;4.51;93.55
70928;SHT31;58587;53.034;18.576;2024-03-25T05:39:17;4.58;93.36
70928;SHT31;58587;53.034;18.576;2024-03-25T05:41:43;4.57;93.29
70928;SHT31;58587;53.034;18.576;2024-03-25T05:44:08;4.58;92.99
70928;SHT31;58587;53.034;18.576;2024-03-25T05:46:33;4.60;92.99
70928;SHT31;58587;53.034;18.576;2024-03-25T05:49:05;4.67;92.91
70928;SHT31;58587;53.034;18.576;2024-03-25T05:51:31;4.71;92.83
70928;SHT31;58587;53.034;18.576;2024-03-25T05:53:58;4.74;92.79
70928;SHT31;58587;53.034;18.576;2024-03-25T05:56:24;4.78;92.83
70928;SHT31;58587;53.034;18.576;2024-03-25T05:58:55;4.82;93.12
70928;SHT31;58587;53.034;18.576;2024-03-25T06:01:21;4.88;92.79
70928;SHT31;58587;53.034;18.576;2024-03-25T06:03:47;4.89;93.14
70928;SHT31;58587;53.034;18.576;2024-03-25T06:06:12;4.95;93.05
70928;SHT31;58587;53.034;18.576;2024-03-25T06:08:37;4.98;92.87
70928;SHT31;58587;53.034;18.576;2024-03-25T06:11:03;4.96;92.64
70928;SHT31;58587;53.034;18.576;2024-03-25T06:13:29;4.99;92.82
70928;SHT31;58587;53.034;18.576;2024-03-25T06:15:54;5.02;93.03
70928;SHT31;58587;53.034;18.576;2024-03-25T06:18:20;5.08;92.85
70928;SHT31;58587;53.034;18.576;2024-03-25T06:20:45;5.08;92.93
70928;SHT31;58587;53.034;18.576;2024-03-25T06:23:12;5.09;92.11
70928;SHT31;58587;53.034;18.576;2024-03-25T06:25:46;5.15;92.16
70928;SHT31;58587;53.034;18.576;2024-03-25T06:28:11;5.18;92.36
70928;SHT31;58587;53.034;18.576;2024-03-25T06:30:37;5.22;92.17
70928;SHT31;58587;53.034;18.576;2024-03-25T06:33:21;5.26;92.30
70928;SHT31;58587;53.034;18.576;2024-03-25T06:36:05;5.30;92.22
70928;SHT31;58587;53.034;18.576;2024-03-25T06:38:31;5.36;92.02
70928;SHT31;58587;53.034;18.576;2024-03-25T06:40:56;5.37;91.68
70928;SHT31;58587;53.034;18.576;2024-03-25T06:43:23;5.43;91.88
70928;SHT31;58587;53.034;18.576;2024-03-25T06:45:49;5.51;92.07
70928;SHT31;58587;53.034;18.576;2024-03-25T06:48:14;5.51;91.46
70928;SHT31;58587;53.034;18.576;2024-03-25T06:50:39;5.57;91.48
70928;SHT31;58587;53.034;18.576;2024-03-25T06:53:05;5.67;91.89
70928;SHT31;58587;53.034;18.576;2024-03-25T06:55:31;5.64;90.93
70928;SHT31;58587;53.034;18.576;2024-03-25T06:57:56;5.66;90.72
70928;SHT31;58587;53.034;18.576;2024-03-25T07:00:21;5.67;90.65
70928;SHT31;58587;53.034;18.576;2024-03-25T07:02:47;5.70;90.73
70928;SHT31;58587;53.034;18.576;2024-03-25T07:05:13;5.80;91.75
70928;SHT31;58587;53.034;18.576;2024-03-25T07:07:39;5.84;91.07
70928;SHT31;58587;53.034;18.576;2024-03-25T07:10:04;5.94;90.55
70928;SHT31;58587;53.034;18.576;2024-03-25T07:12:30;6.02;90.61
70928;SHT31;58587;53.034;18.576;2024-03-25T07:14:55;6.07;90.12
70928;SHT31;58587;53.034;18.576;2024-03-25T07:17:20;6.18;90.26
70928;SHT31;58587;53.034;18.576;2024-03-25T07:19:49;6.25;90.08
70928;SHT31;58587;53.034;18.576;2024-03-25T07:22:14;6.33;90.00
70928;SHT31;58587;53.034;18.576;2024-03-25T07:24:40;6.41;89.03
70928;SHT31;58587;53.034;18.576;2024-03-25T07:27:05;6.52;89.40
70928;SHT31;58587;53.034;18.576;2024-03-25T07:29:31;6.62;89.41
70928;SHT31;58587;53.034;18.576;2024-03-25T07:31:56;6.65;89.48
70928;SHT31;58587;53.034;18.576;2024-03-25T07:34:22;6.59;88.74
70928;SHT31;58587;53.034;18.576;2024-03-25T07:36:47;6.57;88.79
70928;SHT31;58587;53.034;18.576;2024-03-25T07:39:14;6.57;89.13
70928;SHT31;58587;53.034;18.576;2024-03-25T07:41:40;6.55;89.39
70928;SHT31;58587;53.034;18.576;2024-03-25T07:44:05;6.46;89.27
70928;SHT31;58587;53.034;18.576;2024-03-25T07:46:31;6.42;89.63
70928;SHT31;58587;53.034;18.576;2024-03-25T07:48:56;6.43;89.44
70928;SHT31;58587;53.034;18.576;2024-03-25T07:51:22;6.49;89.72
70928;SHT31;58587;53.034;18.576;2024-03-25T07:53:47;6.49;89.72
70928;SHT31;58587;53.034;18.576;2024-03-25T07:56:15;6.49;89.37
70928;SHT31;58587;53.034;18.576;2024-03-25T07:58:40;6.57;89.57
70928;SHT31;58587;53.034;18.576;2024-03-25T08:01:06;6.63;90.08
70928;SHT31;58587;53.034;18.576;2024-03-25T08:03:31;6.68;89.43
70928;SHT31;58587;53.034;18.576;2024-03-25T08:05:56;6.69;88.78
70928;SHT31;58587;53.034;18.576;2024-03-25T08:08:22;6.72;89.47
70928;SHT31;58587;53.034;18.576;2024-03-25T08:10:47;6.76;89.04
70928;SHT31;58587;53.034;18.576;2024-03-25T08:13:12;6.80;88.96
70928;SHT31;58587;53.034;18.576;2024-03-25T08:15:38;6.69;88.06
70928;SHT31;58587;53.034;18.576;2024-03-25T08:18:03;6.73;88.36
70928;SHT31;58587;53.034;18.576;2024-03-25T08:20:29;6.83;88.67
70928;SHT31;58587;53.034;18.576;2024-03-25T08:22:55;6.87;88.23
70928;SHT31;58587;53.034;18.576;2024-03-25T08:25:20;6.95;88.37
70928;SHT31;58587;53.034;18.576;2024-03-25T08:27:45;7.07;88.15
70928;SHT31;58587;53.034;18.576;2024-03-25T08:30:11;7.10;88.36
70928;SHT31;58587;53.034;18.576;2024-03-25T08:32:36;7.23;88.11
70928;SHT31;58587;53.034;18.576;2024-03-25T08:35:02;7.32;87.92
70928;SHT31;58587;53.034;18.576;2024-03-25T08:37:27;7.40;86.34
70928;SHT31;58587;53.034;18.576;2024-03-25T08:39:53;7.47;86.52
70928;SHT31;58587;53.034;18.576;2024-03-25T08:42:18;7.68;86.61
70928;SHT31;58587;53.034;18.576;2024-03-25T08:44:44;7.74;85.13
70928;SHT31;58587;53.034;18.576;2024-03-25T08:47:09;7.83;85.37
70928;SHT31;58587;53.034;18.576;2024-03-25T08:49:34;8.06;85.41
70928;SHT31;58587;53.034;18.576;2024-03-25T08:52:00;8.23;84.60
70928;SHT31;58587;53.034;18.576;2024-03-25T08:54:25;8.23;83.34
70928;SHT31;58587;53.034;18.576;2024-03-25T08:56:50;8.44;83.76
70928;SHT31;58587;53.034;18.576;2024-03-25T08:59:15;8.49;82.70
70928;SHT31;58587;53.034;18.576;2024-03-25T09:01:41;8.44;81.86
70928;SHT31;58587;53.034;18.576;2024-03-25T09:04:06;8.44;81.74
70928;SHT31;58587;53.034;18.576;2024-03-25T09:06:32;8.17;80.33
70928;SHT31;58587;53.034;18.576;2024-03-25T09:08:57;8.17;81.01
70928;SHT31;58587;53.034;18.576;2024-03-25T09:11:54;8.23;82.41
70928;SHT31;58587;53.034;18.576;2024-03-25T09:14:20;8.32;83.04
70928;SHT31;58587;53.034;18.576;2024-03-25T09:16:45;8.09;82.05
70928;SHT31;58587;53.034;18.576;2024-03-25T09:19:11;8.03;82.02
70928;SHT31;58587;53.034;18.576;2024-03-25T09:21:36;8.06;83.22
70928;SHT31;58587;53.034;18.576;2024-03-25T09:24:01;7.92;83.33
70928;SHT31;58587;53.034;18.576;2024-03-25T09:26:27;7.95;83.17
70928;SHT31;58587;53.034;18.576;2024-03-25T09:28:52;7.91;83.56
70928;SHT31;58587;53.034;18.576;2024-03-25T09:31:17;7.96;83.36
70928;SHT31;58587;53.034;18.576;2024-03-25T09:33:43;8.10;83.54
70928;SHT31;58587;53.034;18.576;2024-03-25T09:36:08;8.36;85.67
70928;SHT31;58587;53.034;18.576;2024-03-25T09:38:33;8.33;84.62
70928;SHT31;58587;53.034;18.576;2024-03-25T09:40:59;8.36;82.65
70928;SHT31;58587;53.034;18.576;2024-03-25T09:43:30;8.49;82.55
70928;SHT31;58587;53.034;18.576;2024-03-25T09:45:57;8.61;81.40
70928;SHT31;58587;53.034;18.576;2024-03-25T09:48:24;8.67;80.23
70928;SHT31;58587;53.034;18.576;2024-03-25T09:50:50;8.76;79.77
70928;SHT31;58587;53.034;18.576;2024-03-25T09:53:17;8.78;79.73
70928;SHT31;58587;53.034;18.576;2024-03-25T09:55:42;8.70;79.72
70928;SHT31;58587;53.034;18.576;2024-03-25T09:58:08;8.77;79.52
70928;SHT31;58587;53.034;18.576;2024-03-25T10:00:34;8.80;79.82
70928;SHT31;58587;53.034;18.576;2024-03-25T10:02:59;8.85;79.28
70928;SHT31;58587;53.034;18.576;2024-03-25T10:05:24;8.95;79.64
70928;SHT31;58587;53.034;18.576;2024-03-25T10:07:50;8.78;77.80
70928;SHT31;58587;53.034;18.576;2024-03-25T10:10:19;8.67;79.14
70928;SHT31;58587;53.034;18.576;2024-03-25T10:12:45;8.60;78.52
70928;SHT31;58587;53.034;18.576;2024-03-25T10:15:18;8.52;79.21
70928;SHT31;58587;53.034;18.576;2024-03-25T10:17:44;8.50;79.70
70928;SHT31;58587;53.034;18.576;2024-03-25T10:20:16;8.63;80.70
70928;SHT31;58587;53.034;18.576;2024-03-25T10:22:42;8.50;79.32
70928;SHT31;58587;53.034;18.576;2024-03-25T10:25:22;8.60;79.53
70928;SHT31;58587;53.034;18.576;2024-03-25T10:30:22;8.84;80.49
70928;SHT31;58587;53.034;18.576;2024-03-25T10:33:01;9.14;79.42
70928;SHT31;58587;53.034;18.576;2024-03-25T10:35:28;9.24;77.85
70928;SHT31;58587;53.034;18.576;2024-03-25T10:37:59;9.46;77.23
70928;SHT31;58587;53.034;18.576;2024-03-25T10:40:30;9.83;77.05
70928;SHT31;58587;53.034;18.576;2024-03-25T10:43:16;10.29;75.03
70928;SHT31;58587;53.034;18.576;2024-03-25T10:45:47;10.21;73.90
70928;SHT31;58587;53.034;18.576;2024-03-25T10:48:17;10.20;75.64
70928;SHT31;58587;53.034;18.576;2024-03-25T10:50:44;9.86;73.27
70928;SHT31;58587;53.034;18.576;2024-03-25T10:53:11;9.80;74.30
70928;SHT31;58587;53.034;18.576;2024-03-25T10:55:37;9.78;75.42
70928;SHT31;58587;53.034;18.576;2024-03-25T10:58:03;9.62;74.75
70928;SHT31;58587;53.034;18.576;2024-03-25T11:00:29;9.46;74.78
70928;SHT31;58587;53.034;18.576;2024-03-25T11:02:55;9.58;75.58
70928;SHT31;58587;53.034;18.576;2024-03-25T11:05:21;9.69;75.51
70928;SHT31;58587;53.034;18.576;2024-03-25T11:07:47;9.79;75.46
70928;SHT31;58587;53.034;18.576;2024-03-25T11:10:12;10.11;74.73
70928;SHT31;58587;53.034;18.576;2024-03-25T11:12:41;10.45;74.47
70928;SHT31;58587;53.034;18.576;2024-03-25T11:15:08;10.36;73.78
70928;SHT31;58587;53.034;18.576;2024-03-25T11:17:34;10.27;75.61
70928;SHT31;58587;53.034;18.576;2024-03-25T11:20:12;10.24;74.49
70928;SHT31;58587;53.034;18.576;2024-03-25T11:22:49;10.04;74.67
70928;SHT31;58587;53.034;18.576;2024-03-25T11:25:14;9.97;75.73
70928;SHT31;58587;53.034;18.576;2024-03-25T11:27:43;9.93;75.48
70928;SHT31;58587;53.034;18.576;2024-03-25T11:30:09;9.83;75.02
70928;SHT31;58587;53.034;18.576;2024-03-25T11:32:51;9.80;76.67
70928;SHT31;58587;53.034;18.576;2024-03-25T11:35:17;9.76;77.44
70928;SHT31;58587;53.034;18.576;2024-03-25T11:37:44;9.80;76.74
70928;SHT31;58587;53.034;18.576;2024-03-25T11:40:10;9.83;76.85
70928;SHT31;58587;53.034;18.576;2024-03-25T11:42:41;9.94;76.70
70928;SHT31;58587;53.034;18.576;2024-03-25T11:45:14;9.93;76.03
70928;SHT31;58587;53.034;18.576;2024-03-25T11:47:45;9.93;74.71
70928;SHT31;58587;53.034;18.576;2024-03-25T11:50:13;9.83;74.73
70928;SHT31;58587;53.034;18.576;2024-03-25T11:52:38;9.80;74.58
70928;SHT31;58587;53.034;18.576;2024-03-25T11:55:04;9.76;74.11
70928;SHT31;58587;53.034;18.576;2024-03-25T11:57:29;9.73;75.07
70928;SHT31;58587;53.034;18.576;2024-03-25T11:59:55;9.65;75.11
70928;SHT31;58587;53.034;18.576;2024-03-25T12:02:21;9.53;75.62
70928;SHT31;58587;53.034;18.576;2024-03-25T12:04:48;9.43;75.74
70928;SHT31;58587;53.034;18.576;2024-03-25T12:07:14;9.27;77.41
70928;SHT31;58587;53.034;18.576;2024-03-25T12:09:39;9.08;77.67
70928;SHT31;58587;53.034;18.576;2024-03-25T12:12:25;8.91;79.54
70928;SHT31;58587;53.034;18.576;2024-03-25T12:14:51;8.74;82.21
70928;SHT31;58587;53.034;18.576;2024-03-25T12:17:18;8.60;83.49
70928;SHT31;58587;53.034;18.576;2024-03-25T12:19:44;8.49;84.30
70928;SHT31;58587;53.034;18.576;2024-03-25T12:22:10;8.47;84.27
70928;SHT31;58587;53.034;18.576;2024-03-25T12:24:35;8.10;80.97
70928;SHT31;58587;53.034;18.576;2024-03-25T12:27:01;7.95;82.34
70928;SHT31;58587;53.034;18.576;2024-03-25T12:29:27;7.81;83.22
70928;SHT31;58587;53.034;18.576;2024-03-25T12:31:56;8.73;85.77
70928;SHT31;58587;53.034;18.576;2024-03-25T12:34:22;10.11;83.22
70928;SHT31;58587;53.034;18.576;2024-03-25T12:36:50;10.34;79.55
70928;SHT31;58587;53.034;18.576;2024-03-25T12:39:19;10.25;79.39
70928;SHT31;58587;53.034;18.576;2024-03-25T12:41:44;10.07;78.30
70928;SHT31;58587;53.034;18.576;2024-03-25T12:44:12;10.36;77.65
70928;SHT31;58587;53.034;18.576;2024-03-25T12:46:38;11.32;76.46
70928;SHT31;58587;53.034;18.576;2024-03-25T12:49:07;12.27;73.56
70928;SHT31;58587;53.034;18.576;2024-03-25T12:51:32;11.42;73.39
70928;SHT31;58587;53.034;18.576;2024-03-25T12:53:58;10.96;73.89
70928;SHT31;58587;53.034;18.576;2024-03-25T12:56:24;10.63;75.00
70928;SHT31;58587;53.034;18.576;2024-03-25T12:58:49;10.37;76.45
70928;SHT31;58587;53.034;18.576;2024-03-25T13:01:15;11.43;76.40
70928;SHT31;58587;53.034;18.576;2024-03-25T13:03:40;11.28;73.94
70928;SHT31;58587;53.034;18.576;2024-03-25T13:06:07;12.86;70.89
70928;SHT31;58587;53.034;18.576;2024-03-25T13:08:32;13.28;70.25
70928;SHT31;58587;53.034;18.576;2024-03-25T13:10:58;13.91;66.84
70928;SHT31;58587;53.034;18.576;2024-03-25T13:13:23;14.45;64.48
70928;SHT31;58587;53.034;18.576;2024-03-25T13:15:48;14.43;64.49
70928;SHT31;58587;53.034;18.576;2024-03-25T13:18:14;13.63;63.76
70928;SHT31;58587;53.034;18.576;2024-03-25T13:20:39;12.83;65.60
70928;SHT31;58587;53.034;18.576;2024-03-25T13:23:04;12.58;67.07
70928;SHT31;58587;53.034;18.576;2024-03-25T13:25:30;11.66;70.46
70928;SHT31;58587;53.034;18.576;2024-03-25T13:27:55;11.26;73.14
70928;SHT31;58587;53.034;18.576;2024-03-25T13:30:20;10.54;75.04
70928;SHT31;58587;53.034;18.576;2024-03-25T13:32:48;10.14;76.29
70928;SHT31;58587;53.034;18.576;2024-03-25T13:35:13;9.85;78.43
70928;SHT31;58587;53.034;18.576;2024-03-25T13:37:38;9.65;78.33
70928;SHT31;58587;53.034;18.576;2024-03-25T13:40:04;9.43;79.04
70928;SHT31;58587;53.034;18.576;2024-03-25T13:42:31;9.42;80.83
70928;SHT31;58587;53.034;18.576;2024-03-25T13:44:56;9.43;81.34
70928;SHT31;58587;53.034;18.576;2024-03-25T13:47:21;9.29;80.65
70928;SHT31;58587;53.034;18.576;2024-03-25T13:49:47;9.14;80.86
70928;SHT31;58587;53.034;18.576;2024-03-25T13:52:12;9.08;80.94
70928;SHT31;58587;53.034;18.576;2024-03-25T13:54:37;9.04;81.54
70928;SHT31;58587;53.034;18.576;2024-03-25T13:57:03;9.07;83.38
70928;SHT31;58587;53.034;18.576;2024-03-25T13:59:28;9.03;83.05
70928;SHT31;58587;53.034;18.576;2024-03-25T14:01:53;9.04;84.10
70928;SHT31;58587;53.034;18.576;2024-03-25T14:04:19;8.98;83.92
70928;SHT31;58587;53.034;18.576;2024-03-25T14:06:45;9.05;84.21
70928;SHT31;58587;53.034;18.576;2024-03-25T14:09:23;9.25;84.50
70928;SHT31;58587;53.034;18.576;2024-03-25T14:11:49;9.36;81.56
70928;SHT31;58587;53.034;18.576;2024-03-25T14:14:14;9.39;79.59
70928;SHT31;58587;53.034;18.576;2024-03-25T14:16:40;10.07;81.60
70928;SHT31;58587;53.034;18.576;2024-03-25T14:19:05;10.82;79.11
70928;SHT31;58587;53.034;18.576;2024-03-25T14:21:31;11.22;78.80
70928;SHT31;58587;53.034;18.576;2024-03-25T14:23:56;10.94;77.19
70928;SHT31;58587;53.034;18.576;2024-03-25T14:26:21;11.35;74.98
70928;SHT31;58587;53.034;18.576;2024-03-25T14:28:47;12.79;73.27
70928;SHT31;58587;53.034;18.576;2024-03-25T14:31:12;13.91;67.44
70928;SHT31;58587;53.034;18.576;2024-03-25T14:33:37;14.93;66.27
70928;SHT31;58587;53.034;18.576;2024-03-25T14:36:03;15.33;63.44
70928;SHT31;58587;53.034;18.576;2024-03-25T14:38:28;15.67;62.25
70928;SHT31;58587;53.034;18.576;2024-03-25T14:40:54;14.69;63.16
70928;SHT31;58587;53.034;18.576;2024-03-25T14:43:19;14.04;63.95
70928;SHT31;58587;53.034;18.576;2024-03-25T14:45:45;13.37;65.21
70928;SHT31;58587;53.034;18.576;2024-03-25T14:48:11;12.88;64.94
70928;SHT31;58587;53.034;18.576;2024-03-25T14:50:36;12.49;68.73
70928;SHT31;58587;53.034;18.576;2024-03-25T14:53:02;11.98;70.09
70928;SHT31;58587;53.034;18.576;2024-03-25T14:55:28;11.63;72.63
70928;SHT31;58587;53.034;18.576;2024-03-25T14:57:54;11.40;73.24
70928;SHT31;58587;53.034;18.576;2024-03-25T15:00:19;11.11;74.64
70928;SHT31;58587;53.034;18.576;2024-03-25T15:02:45;10.75;75.29
70928;SHT31;58587;53.034;18.576;2024-03-25T15:05:11;10.64;76.29
70928;SHT31;58587;53.034;18.576;2024-03-25T15:07:37;10.48;77.14
70928;SHT31;58587;53.034;18.576;2024-03-25T15:10:03;10.34;77.67
70928;SHT31;58587;53.034;18.576;2024-03-25T15:12:28;10.11;78.22
70928;SHT31;58587;53.034;18.576;2024-03-25T15:14:53;9.90;78.52
70928;SHT31;58587;53.034;18.576;2024-03-25T15:17:19;9.85;78.66
70928;SHT31;58587;53.034;18.576;2024-03-25T15:19:44;9.70;78.40
70928;SHT31;58587;53.034;18.576;2024-03-25T15:22:10;9.49;78.24
70928;SHT31;58587;53.034;18.576;2024-03-25T15:24:35;9.28;79.56